createdAt,value
2023-04-22T00:04:29.261Z,13.95
2023-04-22T00:10:34.078Z,14.52
2023-04-22T00:16:37.705Z,15.32
2023-04-22T00:22:41.295Z,17.00
2023-04-22T00:28:46.482Z,15.57
2023-04-22T00:34:50.372Z,13.23
2023-04-22T00:40:53.758Z,15.32
2023-04-22T00:46:58.892Z,14.95
2023-04-22T00:53:02.345Z,15.02
2023-04-22T00:59:06.228Z,16.30
2023-04-22T01:05:11.617Z,16.45
2023-04-22T01:11:15.530Z,15.23
2023-04-22T01:17:19.613Z,17.15
2023-04-22T01:23:24.640Z,17.52
2023-04-22T01:29:28.330Z,15.20
2023-04-22T01:35:37.062Z,19.08
2023-04-22T01:41:42.809Z,16.02
2023-04-22T01:47:46.523Z,16.85
2023-04-22T01:53:50.354Z,18.33
2023-04-22T01:59:55.131Z,14.93
2023-04-22T02:05:58.926Z,18.50
2023-04-22T02:12:02.597Z,18.15
2023-04-22T02:18:07.540Z,19.45
2023-04-22T02:24:11.207Z,20.00
2023-04-22T02:30:14.921Z,19.20
2023-04-22T02:36:19.758Z,18.60
2023-04-22T02:42:23.234Z,22.38
2023-04-22T02:48:26.709Z,23.13
2023-04-22T02:54:31.519Z,23.17
2023-04-22T03:00:35.773Z,30.05
2023-04-22T03:06:39.452Z,23.40
2023-04-22T03:12:44.467Z,22.60
2023-04-22T03:18:48.066Z,22.25
2023-04-22T03:24:51.665Z,23.10
2023-04-22T03:30:57.654Z,24.73
2023-04-22T03:37:01.118Z,26.48
2023-04-22T03:43:04.698Z,23.65
2023-04-22T03:49:09.572Z,25.33
2023-04-22T03:55:13.027Z,25.75
2023-04-22T04:01:16.444Z,27.40
2023-04-22T04:07:21.999Z,24.58
2023-04-22T04:13:25.424Z,24.08
2023-04-22T04:19:28.909Z,24.85
2023-04-22T04:25:38.422Z,24.08
2023-04-22T04:31:42.025Z,26.02
2023-04-22T04:37:46.713Z,22.80
2023-04-22T04:43:52.932Z,23.02
2023-04-22T04:49:58.685Z,24.33
2023-04-22T04:56:02.151Z,26.88
2023-04-22T05:02:07.134Z,26.00
2023-04-22T05:08:10.778Z,23.63
2023-04-22T05:14:14.199Z,21.02
2023-04-22T05:20:18.989Z,21.17
2023-04-22T05:26:22.418Z,19.27
2023-04-22T05:32:25.976Z,21.85
2023-04-22T05:38:31.164Z,22.38
2023-04-22T05:44:34.700Z,18.48
2023-04-22T05:50:38.384Z,20.17
2023-04-22T05:56:43.328Z,20.42
2023-04-22T06:02:47.069Z,21.35
2023-04-22T06:08:50.723Z,23.80
2023-04-22T06:14:55.770Z,25.98
2023-04-22T06:20:59.314Z,27.58
2023-04-22T06:27:03.561Z,26.15
2023-04-22T06:33:08.459Z,27.27
2023-04-22T06:39:12.188Z,24.38
2023-04-22T06:45:15.589Z,26.95
2023-04-22T06:51:20.335Z,28.15
2023-04-22T06:57:23.741Z,27.50
2023-04-22T07:03:27.621Z,29.58
2023-04-22T07:09:32.681Z,28.05
2023-04-22T07:15:36.148Z,27.38
2023-04-22T07:21:39.552Z,28.42
2023-04-22T07:27:44.342Z,25.75
2023-04-22T07:33:47.829Z,26.83
2023-04-22T07:39:51.232Z,26.20
2023-04-22T07:45:56.212Z,31.20
2023-04-22T07:51:59.676Z,28.88
2023-04-22T07:58:06.397Z,29.63
2023-04-22T08:04:11.887Z,27.55
2023-04-22T08:10:15.565Z,31.70
2023-04-22T08:16:19.138Z,25.92
2023-04-22T08:22:23.983Z,27.63
2023-04-22T08:28:27.488Z,27.10
2023-04-22T08:34:31.082Z,27.33
2023-04-22T08:40:36.254Z,27.08
2023-04-22T08:46:40.504Z,26.20
2023-04-22T08:52:44.334Z,25.30
2023-04-22T08:58:49.406Z,27.63
2023-04-22T09:04:53.931Z,25.75
2023-04-22T09:10:57.520Z,22.85
2023-04-22T09:17:04.694Z,26.83
2023-04-22T09:23:08.310Z,26.55
2023-04-22T09:29:15.874Z,27.35
2023-04-22T09:35:24.853Z,27.92
2023-04-22T09:41:29.131Z,28.67
2023-04-22T09:47:37.624Z,30.27
2023-04-22T09:53:42.521Z,31.27
2023-04-22T09:59:45.886Z,27.73
2023-04-22T10:05:49.391Z,24.95
2023-04-22T10:11:54.959Z,21.75
2023-04-22T10:17:58.746Z,19.20
2023-04-22T10:24:02.272Z,19.17
2023-04-22T10:30:09.505Z,26.70
2023-04-22T10:36:17.296Z,25.25
2023-04-22T10:42:21.950Z,27.27
2023-04-22T10:48:40.222Z,27.33
2023-04-22T10:55:03.091Z,28.35
2023-04-22T11:01:16.437Z,25.08
2023-04-22T11:07:31.979Z,25.70
2023-04-22T11:13:37.073Z,24.17
2023-04-22T11:19:40.866Z,26.35
2023-04-22T11:25:44.425Z,25.45
2023-04-22T11:31:50.546Z,23.02
2023-04-22T11:37:55.889Z,20.42
2023-04-22T11:43:59.332Z,20.95
2023-04-22T11:50:07.108Z,19.23
2023-04-22T11:56:10.637Z,20.95
2023-04-22T12:02:14.176Z,20.67
2023-04-22T12:08:19.774Z,20.67
2023-04-22T12:14:23.200Z,20.13
2023-04-22T12:20:26.667Z,22.55
2023-04-22T12:26:31.703Z,17.42
2023-04-22T12:32:35.102Z,17.27
2023-04-22T12:38:39.016Z,20.65
2023-04-22T12:44:44.498Z,21.90
2023-04-22T12:50:48.096Z,20.60
2023-04-22T12:56:51.592Z,20.02
2023-04-22T13:02:56.648Z,21.73
2023-04-22T13:09:00.467Z,16.70
2023-04-22T13:15:04.173Z,16.50
2023-04-22T13:21:09.098Z,19.42
2023-04-22T13:27:13.083Z,14.55
2023-04-22T13:33:16.715Z,15.98
2023-04-22T13:39:22.090Z,15.73
2023-04-22T13:45:26.219Z,15.05
2023-04-22T13:51:29.738Z,13.60
2023-04-22T13:57:34.675Z,13.23
2023-04-22T14:03:38.334Z,14.07
2023-04-22T14:09:42.180Z,14.25
2023-04-22T14:15:47.352Z,10.38
2023-04-22T14:21:50.840Z,8.73
2023-04-22T14:27:54.484Z,13.82
2023-04-22T14:33:59.238Z,16.23
2023-04-22T14:40:03.550Z,8.13
2023-04-22T14:46:07.073Z,14.35
2023-04-22T14:52:11.927Z,12.10
2023-04-22T14:58:15.313Z,13.23
2023-04-22T15:04:19.449Z,7.30
2023-04-22T15:10:24.461Z,11.93
2023-04-22T15:16:28.037Z,8.60
2023-04-22T15:22:31.935Z,12.23
2023-04-22T15:28:36.801Z,11.18
2023-04-22T15:34:40.949Z,10.35
2023-04-22T15:40:44.460Z,7.25
2023-04-22T15:46:49.487Z,12.80
2023-04-22T15:52:54.148Z,10.40
2023-04-22T15:58:57.569Z,14.88
2023-04-22T16:05:02.730Z,14.48
2023-04-22T16:11:06.287Z,8.95
2023-04-22T16:17:10.092Z,11.70
2023-04-22T16:23:15.466Z,12.80
2023-04-22T16:29:19.555Z,14.98
2023-04-22T16:35:23.066Z,15.23
2023-04-22T16:41:28.060Z,12.32
2023-04-22T16:47:31.581Z,18.55
2023-04-22T16:53:35.116Z,15.82
2023-04-22T16:59:40.272Z,15.85
2023-04-22T17:05:44.046Z,19.70
2023-04-22T17:11:47.772Z,13.98
2023-04-22T17:17:52.680Z,15.27
2023-04-22T17:23:56.662Z,16.48
2023-04-22T17:30:00.149Z,10.50
2023-04-22T17:36:05.136Z,13.85
2023-04-22T17:42:08.728Z,14.88
2023-04-22T17:48:12.481Z,14.73
2023-04-22T17:54:17.653Z,15.02
2023-04-22T18:00:22.069Z,14.68
2023-04-22T18:06:25.815Z,14.05
2023-04-22T18:12:30.951Z,14.57
2023-04-22T18:18:35.514Z,13.02
2023-04-22T18:24:40.458Z,13.63
2023-04-22T18:30:45.537Z,14.30
2023-04-22T18:36:48.996Z,14.73
2023-04-22T18:42:52.672Z,14.82
2023-04-22T18:48:57.625Z,14.32
2023-04-22T18:55:04.342Z,13.27
2023-04-22T19:01:07.912Z,14.95
2023-04-22T19:07:15.330Z,14.30
2023-04-22T19:13:29.100Z,16.58
2023-04-22T19:19:33.381Z,14.40
2023-04-22T19:25:41.687Z,16.27
2023-04-22T19:31:45.406Z,16.17
2023-04-22T19:37:52.149Z,15.20
2023-04-22T19:43:59.047Z,15.80
2023-04-22T19:50:02.906Z,15.18
2023-04-22T19:56:06.607Z,16.17
2023-04-22T20:02:11.774Z,14.13
2023-04-22T20:08:15.465Z,14.23
2023-04-22T20:14:19.289Z,14.45
2023-04-22T20:20:24.242Z,14.27
2023-04-22T20:26:32.398Z,14.07
2023-04-22T20:32:36.513Z,16.05
2023-04-22T20:38:41.395Z,13.70
2023-04-22T20:44:45.336Z,15.93
2023-04-22T20:50:48.774Z,13.80
2023-04-22T20:56:53.884Z,14.50
2023-04-22T21:02:57.628Z,15.50
2023-04-22T21:09:01.620Z,12.68
2023-04-22T21:15:07.239Z,13.65
2023-04-22T21:21:12.203Z,14.13
2023-04-22T21:27:15.634Z,13.77
2023-04-22T21:33:20.525Z,13.25
2023-04-22T21:39:23.945Z,13.45
2023-04-22T21:45:27.493Z,14.32
2023-04-22T21:51:32.559Z,12.65
2023-04-22T21:57:36.061Z,12.95
2023-04-22T22:03:39.708Z,15.23
2023-04-22T22:09:44.659Z,14.55
2023-04-22T22:15:48.278Z,15.20
2023-04-22T22:21:51.809Z,14.82
2023-04-22T22:27:56.838Z,14.18
2023-04-22T22:34:00.330Z,14.63
2023-04-22T22:40:03.775Z,14.43
2023-04-22T22:46:08.824Z,16.27
2023-04-22T22:52:12.437Z,15.95
2023-04-22T22:58:15.872Z,16.30
2023-04-22T23:04:21.072Z,17.48
2023-04-22T23:10:24.953Z,15.68
2023-04-22T23:16:28.417Z,16.10
2023-04-22T23:22:33.866Z,15.52
2023-04-22T23:28:38.134Z,7.55
2023-04-22T23:34:43.065Z,12.60
2023-04-22T23:40:48.048Z,6.43
2023-04-22T23:46:51.744Z,8.75
2023-04-22T23:52:55.250Z,8.68
2023-04-22T23:59:00.660Z,9.40
